Terminal Aerodrome Forecast
Issued by NWS

Home | Current Version | Previous Version | Graphics & Text | Print | Product List | Glossary On
Versions: 1 2 3 4 5 6 7 8 9 10 11 12 13 14 15 16 17 18 19
000
FTUS43 KABR 181730
TAFPIR
TAF
KPIR 181730Z 1818/1918 23007KT P6SM FEW250
     FM182000 17009KT P6SM FEW250
     FM190700 14011KT P6SM SCT250 WS020/18035KT
     FM191400 15016G24KT P6SM SCT150 WS020/19040KT
     FM191500 15017G25KT P6SM SCT150=

USA.gov is the U.S. government's official web portal to all federal, state and local government web resources and services.